Time;durP1;ratioP1;P1;durP2;ratioP2;P2;SDS_P1;SDS_P2;PMS_P1;PMS_P2;Temp;Humidity;BMP_temperature;BMP_pressure;BME280_temperature;BME280_humidity;BME280_pressure;Samples;Min_cycle;Max_cycle;Signal;HPM_P1;HPM_P2
2022/10/03 00:02:34;;;;;;;5.00;3.13;;;10.60;99.90;;;;;;5031335;28;20037;-80
2022/10/03 00:05:22;;;;;;;4.20;3.03;;;10.50;99.90;;;;;;5036066;28;20057;-78
2022/10/03 00:07:48;;;;;;;4.45;3.25;;;10.50;99.90;;;;;;5036366;28;20121;-78
2022/10/03 00:10:28;;;;;;;4.65;3.08;;;10.50;99.90;;;;;;5034643;28;20037;-79
2022/10/03 00:13:12;;;;;;;3.95;3.08;;;10.40;99.90;;;;;;5039281;28;20030;-78
2022/10/03 00:15:38;;;;;;;2.78;2.50;;;10.40;99.90;;;;;;5039296;28;20029;-78
2022/10/03 00:18:12;;;;;;;5.32;3.38;;;10.30;99.90;;;;;;5039453;28;20034;-77
2022/10/03 00:20:47;;;;;;;6.80;3.65;;;10.30;99.90;;;;;;5039578;28;20053;-77
2022/10/03 00:23:38;;;;;;;6.80;4.25;;;10.30;99.90;;;;;;5038830;28;20022;-78
2022/10/03 00:26:27;;;;;;;4.72;3.05;;;10.30;99.90;;;;;;5038600;28;20048;-78
2022/10/03 00:29:19;;;;;;;6.05;3.40;;;10.20;99.90;;;;;;5039321;28;20022;-77
2022/10/03 00:32:03;;;;;;;4.45;3.00;;;10.20;99.90;;;;;;5038896;28;20026;-78
2022/10/03 00:34:29;;;;;;;4.18;2.63;;;10.10;99.90;;;;;;5038680;28;20034;-75
2022/10/03 00:37:12;;;;;;;7.22;4.13;;;10.10;99.90;;;;;;5039389;28;20045;-77
2022/10/03 00:39:57;;;;;;;5.80;3.78;;;10.10;99.90;;;;;;5038253;28;20014;-77
2022/10/03 00:42:55;;;;;;;6.28;3.65;;;10.10;99.90;;;;;;5037978;28;20034;-78
2022/10/03 00:45:44;;;;;;;7.03;4.20;;;10.00;99.90;;;;;;5038028;28;20060;-76
2022/10/03 00:48:30;;;;;;;3.47;2.67;;;10.00;99.90;;;;;;5036993;28;20041;-78
2022/10/03 00:50:56;;;;;;;4.50;2.88;;;10.00;99.90;;;;;;5035805;28;20057;-76
2022/10/03 00:53:42;;;;;;;4.38;2.85;;;9.90;99.90;;;;;;5037553;28;20041;-78
2022/10/03 00:56:30;;;;;;;4.13;3.13;;;10.00;99.90;;;;;;5037490;28;20041;-79
2022/10/03 00:59:05;;;;;;;4.95;2.78;;;9.90;99.90;;;;;;5037419;28;20065;-79
2022/10/03 01:01:40;;;;;;;5.53;3.45;;;9.90;99.90;;;;;;5036048;28;20032;-78
2022/10/03 01:04:39;;;;;;;5.45;3.83;;;9.90;99.90;;;;;;5035178;28;20117;-77
2022/10/03 01:07:13;;;;;;;6.30;3.83;;;9.90;99.90;;;;;;5035448;28;20021;-77
2022/10/03 01:09:54;;;;;;;10.63;5.68;;;9.80;99.90;;;;;;5036281;28;20069;-77
2022/10/03 01:12:31;;;;;;;9.95;4.97;;;9.90;99.90;;;;;;5035753;28;20034;-76
2022/10/03 01:15:15;;;;;;;9.57;5.93;;;9.90;99.90;;;;;;5035773;28;20022;-77
2022/10/03 01:17:49;;;;;;;9.57;4.82;;;9.80;99.90;;;;;;5035770;28;20090;-78
2022/10/03 01:20:27;;;;;;;10.10;5.72;;;9.80;99.90;;;;;;5035829;28;20029;-77
2022/10/03 01:23:34;;;;;;;7.88;4.90;;;9.80;99.90;;;;;;5035753;28;20042;-76
2022/10/03 01:26:06;;;;;;;6.97;3.92;;;9.80;99.90;;;;;;5036225;28;20044;-75
2022/10/03 01:32:09;;;;;;;8.30;5.15;;;9.70;99.90;;;;;;5037607;28;20059;-77
2022/10/03 01:34:41;;;;;;;10.30;5.88;;;9.70;99.90;;;;;;5031384;28;20049;-77
2022/10/03 01:37:22;;;;;;;7.60;4.85;;;9.70;99.90;;;;;;5036654;28;20036;-78
2022/10/03 01:40:07;;;;;;;6.60;4.57;;;9.70;99.90;;;;;;5035425;28;20036;-78
2022/10/03 01:42:33;;;;;;;7.38;4.28;;;9.70;99.90;;;;;;5030939;28;20036;-78
2022/10/03 01:45:12;;;;;;;9.20;4.90;;;9.70;99.90;;;;;;5036971;28;20309;-77
2022/10/03 01:47:54;;;;;;;10.68;5.20;;;9.80;99.90;;;;;;5037603;28;20101;-77
2022/10/03 01:50:35;;;;;;;8.50;4.32;;;9.90;99.90;;;;;;5035763;28;20030;-77
2022/10/03 01:53:20;;;;;;;16.73;6.63;;;10.00;99.90;;;;;;5014997;28;20018;-79
2022/10/03 01:56:11;;;;;;;14.93;7.75;;;10.00;99.90;;;;;;5015383;28;20146;-78
2022/10/03 01:58:43;;;;;;;18.23;8.95;;;10.00;99.90;;;;;;5016707;28;20023;-78
2022/10/03 02:01:18;;;;;;;23.10;9.50;;;10.00;99.90;;;;;;5019739;28;20018;-78
2022/10/03 02:03:54;;;;;;;24.40;10.10;;;10.00;99.90;;;;;;5035614;28;20058;-79
2022/10/03 02:06:41;;;;;;;22.02;10.05;;;10.00;99.90;;;;;;5036016;28;20030;-78
2022/10/03 02:09:28;;;;;;;20.13;9.63;;;10.00;99.90;;;;;;5034694;28;20371;-77
2022/10/03 02:12:08;;;;;;;15.48;8.48;;;10.00;99.90;;;;;;5031983;28;20588;-78
2022/10/03 02:15:04;;;;;;;15.15;7.18;;;9.90;99.90;;;;;;5032256;28;20024;-78
2022/10/03 02:17:48;;;;;;;15.88;6.45;;;10.00;99.90;;;;;;5031708;28;20061;-77
2022/10/03 02:20:27;;;;;;;14.63;7.32;;;9.90;99.90;;;;;;5032738;28;20030;-75
2022/10/03 02:22:57;;;;;;;14.65;6.45;;;10.00;99.90;;;;;;5033942;28;20061;-76
2022/10/03 02:25:23;;;;;;;14.23;6.60;;;10.00;99.90;;;;;;5031482;28;20041;-78
2022/10/03 02:28:01;;;;;;;11.88;5.95;;;10.00;99.90;;;;;;5030980;28;20022;-77
2022/10/03 02:30:54;;;;;;;13.05;6.47;;;9.90;99.90;;;;;;5031143;28;20061;-78
2022/10/03 02:33:56;;;;;;;9.07;5.30;;;9.80;99.90;;;;;;5043058;23;20052;-79
2022/10/03 02:36:36;;;;;;;9.67;5.70;;;9.80;99.90;;;;;;5020844;28;20029;-79
2022/10/03 02:39:29;;;;;;;8.85;5.22;;;9.70;99.90;;;;;;5026346;28;20037;-79
2022/10/03 02:42:03;;;;;;;;;;;9.60;99.90;;;;;;5043873;28;20025;-79
2022/10/03 02:44:37;;;;;;;3.88;3.38;;;9.50;99.90;;;;;;5049404;28;19913;-80
2022/10/03 02:47:12;;;;;;;6.57;3.70;;;9.40;99.90;;;;;;5051285;28;20021;-82
2022/10/03 02:50:02;;;;;;;8.40;4.50;;;9.40;99.90;;;;;;5053864;28;20028;-80
2022/10/03 02:52:44;;;;;;;6.88;4.97;;;9.40;99.90;;;;;;5046877;28;20025;-79
2022/10/03 02:55:22;;;;;;;11.73;4.85;;;9.40;99.90;;;;;;5035746;28;20029;-78
2022/10/03 02:58:18;;;;;;;5.80;3.80;;;9.40;99.90;;;;;;5035215;28;20021;-78
2022/10/03 03:00:56;;;;;;;4.07;2.90;;;9.40;99.90;;;;;;5030233;28;20575;-78
2022/10/03 03:03:56;;;;;;;4.07;2.90;;;9.30;99.90;;;;;;5035793;28;20039;-80
2022/10/03 03:06:42;;;;;;;7.47;4.53;;;9.30;99.90;;;;;;5034863;28;20040;-81
2022/10/03 03:09:32;;;;;;;8.60;4.80;;;9.30;99.90;;;;;;5039762;28;20017;-80
2022/10/03 03:12:26;;;;;;;5.68;3.90;;;9.20;99.90;;;;;;5020849;28;20037;-80
2022/10/03 03:15:09;;;;;;;7.32;3.88;;;9.20;99.90;;;;;;5020038;28;20026;-80
2022/10/03 03:17:55;;;;;;;6.95;4.10;;;9.20;99.90;;;;;;5019638;28;20033;-80
2022/10/03 03:20:27;;;;;;;5.40;3.75;;;9.10;99.90;;;;;;5026480;28;20041;-79
2022/10/03 03:23:12;;;;;;;5.25;3.55;;;9.10;99.90;;;;;;5027501;28;20178;-79
2022/10/03 03:25:45;;;;;;;5.13;3.47;;;9.10;99.90;;;;;;5038837;28;20033;-81
2022/10/03 03:28:10;;;;;;;4.05;3.03;;;9.10;99.90;;;;;;5039129;28;20120;-80
2022/10/03 03:30:56;;;;;;;3.03;2.60;;;9.10;99.90;;;;;;5040054;28;20136;-79
2022/10/03 03:33:51;;;;;;;3.90;2.85;;;9.10;99.90;;;;;;5009559;28;20037;-79
2022/10/03 03:36:47;;;;;;;7.57;3.63;;;9.10;99.90;;;;;;5039890;28;20414;-80
2022/10/03 03:39:36;;;;;;;4.60;2.63;;;9.20;99.90;;;;;;5037923;28;20081;-79
2022/10/03 03:42:21;;;;;;;3.60;2.05;;;9.20;99.90;;;;;;5038668;28;20050;-79
2022/10/03 03:45:08;;;;;;;2.97;2.10;;;9.20;99.90;;;;;;5039597;28;20029;-80
2022/10/03 03:47:53;;;;;;;4.85;2.28;;;9.20;99.90;;;;;;5042943;28;20117;-79
2022/10/03 03:50:19;;;;;;;3.65;2.22;;;9.20;99.90;;;;;;5050552;28;20056;-81
2022/10/03 03:53:00;;;;;;;6.03;3.63;;;9.10;99.90;;;;;;5043610;28;20539;-80
2022/10/03 03:55:34;;;;;;;13.50;5.97;;;9.10;99.90;;;;;;5042782;28;20061;-80
2022/10/03 03:58:24;;;;;;;16.20;6.78;;;9.10;99.90;;;;;;5044343;28;20029;-80
2022/10/03 04:01:22;;;;;;;14.93;7.25;;;9.00;99.90;;;;;;5044981;28;20022;-80
2022/10/03 04:04:04;;;;;;;9.63;5.70;;;9.00;99.90;;;;;;5030053;28;20029;-80
2022/10/03 04:06:47;;;;;;;17.00;7.40;;;9.00;99.90;;;;;;5045139;28;20351;-80
2022/10/03 04:09:41;;;;;;;14.40;7.30;;;9.00;99.90;;;;;;5045573;28;20025;-80
2022/10/03 04:12:44;;;;;;;11.95;5.75;;;9.00;99.90;;;;;;5044883;28;20048;-81
2022/10/03 04:15:36;;;;;;;7.75;4.32;;;8.90;99.90;;;;;;5052064;28;20029;-79
2022/10/03 04:24:32;;;;;;;8.13;4.63;;;8.80;99.90;;;;;;5041144;28;20061;-79
2022/10/03 04:27:27;;;;;;;8.93;5.50;;;8.80;99.90;;;;;;5039627;28;20028;-79
2022/10/03 04:30:06;;;;;;;7.07;4.75;;;8.80;99.90;;;;;;5039259;28;20025;-80
2022/10/03 04:32:56;;;;;;;7.20;3.95;;;8.80;99.90;;;;;;5042062;28;20021;-80
2022/10/03 04:35:59;;;;;;;8.60;4.30;;;8.80;99.90;;;;;;5040859;28;20037;-79
2022/10/03 04:38:56;;;;;;;9.30;4.35;;;8.80;99.90;;;;;;5041303;28;20045;-79
2022/10/03 04:41:27;;;;;;;8.50;5.05;;;8.80;99.90;;;;;;5042461;28;20473;-80
2022/10/03 04:44:30;;;;;;;6.68;4.15;;;8.80;99.90;;;;;;5042404;28;20679;-80
2022/10/03 04:47:33;;;;;;;4.32;3.30;;;8.80;99.90;;;;;;4980750;28;20034;-79
2022/10/03 04:50:12;;;;;;;;;;;8.80;99.90;;;;;;5042140;28;20055;-81
2022/10/03 04:52:44;;;;;;;6.07;3.28;;;8.80;99.90;;;;;;5042166;28;19904;-81
2022/10/03 04:55:42;;;;;;;6.97;4.07;;;8.80;99.90;;;;;;5042415;28;20048;-81
2022/10/03 04:58:13;;;;;;;4.60;3.45;;;8.80;99.90;;;;;;5020969;28;20132;-81
2022/10/03 05:01:25;;;;;;;3.92;2.90;;;8.70;99.90;;;;;;5043588;28;20025;-81
2022/10/03 05:04:15;;;;;;;3.30;2.73;;;8.70;99.90;;;;;;4980372;28;20523;-81
2022/10/03 05:06:47;;;;;;;3.35;2.70;;;8.70;99.90;;;;;;4981577;28;20050;-81
2022/10/03 05:09:43;;;;;;;5.43;3.03;;;8.60;99.90;;;;;;5022972;28;20037;-81
2022/10/03 05:12:31;;;;;;;3.25;2.88;;;8.60;99.90;;;;;;5042567;28;20027;-81
2022/10/03 05:15:06;;;;;;;4.00;3.00;;;8.60;99.90;;;;;;5056671;28;20023;-79
2022/10/03 05:17:37;;;;;;;3.88;2.33;;;8.60;99.90;;;;;;5056051;28;20032;-79
2022/10/03 05:20:30;;;;;;;2.78;2.05;;;8.60;99.90;;;;;;5057498;28;20040;-79
2022/10/03 05:23:14;;;;;;;;;;;8.60;99.90;;;;;;5056659;28;20025;-79
2022/10/03 05:25:52;;;;;;;2.20;2.00;;;8.60;99.90;;;;;;5042606;28;20024;-79
2022/10/03 05:28:50;;;;;;;2.38;1.88;;;8.60;99.90;;;;;;5037312;28;20052;-79
2022/10/03 05:31:33;;;;;;;2.67;1.70;;;8.70;99.90;;;;;;5022310;28;20049;-80
2022/10/03 05:34:17;;;;;;;3.47;2.40;;;8.70;99.90;;;;;;5027927;28;20105;-80
2022/10/03 05:37:25;;;;;;;2.10;1.73;;;8.80;99.90;;;;;;5032819;28;20053;-80
2022/10/03 05:40:21;;;;;;;1.75;1.58;;;8.80;99.90;;;;;;5024474;28;20077;-81
2022/10/03 05:42:54;;;;;;;1.92;1.55;;;8.80;99.90;;;;;;5024061;28;20034;-81
2022/10/03 05:45:31;;;;;;;1.77;1.50;;;8.80;99.90;;;;;;5032862;28;20029;-80
2022/10/03 05:48:17;;;;;;;1.63;1.50;;;8.70;99.90;;;;;;5044600;28;20040;-80
2022/10/03 05:51:14;;;;;;;2.17;1.90;;;8.70;99.90;;;;;;5042657;28;20021;-81
2022/10/03 05:53:45;;;;;;;2.40;1.90;;;8.60;99.90;;;;;;5041119;28;20117;-81
2022/10/03 05:56:34;;;;;;;4.20;2.05;;;8.60;99.90;;;;;;5032481;28;20355;-81
2022/10/03 05:59:37;;;;;;;3.35;1.67;;;8.70;99.90;;;;;;5020921;28;20034;-80
2022/10/03 06:02:19;;;;;;;3.33;1.83;;;8.80;99.90;;;;;;5021224;28;20104;-80
2022/10/03 06:05:21;;;;;;;2.13;1.63;;;8.80;99.90;;;;;;5022192;28;20036;-81
2022/10/03 06:08:11;;;;;;;1.60;1.50;;;8.90;99.90;;;;;;5018393;28;20037;-81
2022/10/03 06:10:56;;;;;;;2.53;1.67;;;9.00;99.90;;;;;;5021621;28;20078;-80
2022/10/03 06:13:51;;;;;;;2.67;1.50;;;9.00;99.90;;;;;;5022571;28;20018;-81
2022/10/03 06:16:42;;;;;;;1.25;1.15;;;9.10;99.90;;;;;;5025213;28;20037;-80
2022/10/03 06:19:14;;;;;;;1.60;1.38;;;9.10;99.90;;;;;;5022269;28;20133;-81
2022/10/03 06:22:07;;;;;;;1.70;1.17;;;9.10;99.90;;;;;;5022291;28;20429;-81
2022/10/03 06:24:36;;;;;;;1.92;1.38;;;9.10;99.90;;;;;;5021993;28;20085;-81
2022/10/03 06:27:10;;;;;;;2.35;1.60;;;9.20;99.90;;;;;;5030604;28;20478;-81
2022/10/03 06:30:02;;;;;;;2.40;1.40;;;9.20;99.90;;;;;;5042684;28;20513;-81
2022/10/03 06:32:58;;;;;;;1.60;1.38;;;9.30;99.90;;;;;;5042341;28;20017;-81
2022/10/03 06:35:26;;;;;;;2.40;1.60;;;9.40;99.90;;;;;;5041648;28;20041;-82
2022/10/03 06:38:14;;;;;;;1.88;1.35;;;9.50;99.90;;;;;;5041731;28;20417;-80
2022/10/03 06:41:16;;;;;;;2.08;1.38;;;9.60;99.90;;;;;;5042526;28;20079;-80
2022/10/03 06:43:49;;;;;;;1.95;1.40;;;9.60;99.90;;;;;;5044443;28;20077;-80
2022/10/03 06:46:44;;;;;;;2.80;1.88;;;9.70;99.90;;;;;;5044787;28;20037;-80
2022/10/03 06:49:38;;;;;;;1.33;1.20;;;9.90;99.90;;;;;;5052334;28;20033;-81
2022/10/03 06:52:26;;;;;;;4.00;1.48;;;10.00;99.90;;;;;;5044892;28;20087;-82
2022/10/03 06:55:33;;;;;;;3.25;1.73;;;10.10;99.90;;;;;;5042168;28;20064;-80
2022/10/03 06:58:10;;;;;;;1.77;1.25;;;10.20;99.90;;;;;;5041600;28;20028;-79
2022/10/03 07:00:54;;;;;;;1.45;1.35;;;10.20;99.90;;;;;;5041085;28;20025;-79
2022/10/03 07:04:02;;;;;;;2.78;1.45;;;10.20;99.90;;;;;;5042014;28;20440;-80
2022/10/03 07:06:40;;;;;;;1.40;1.00;;;10.30;99.90;;;;;;5040326;28;20030;-80
2022/10/03 07:09:05;;;;;;;1.33;1.20;;;10.30;99.90;;;;;;5041137;28;20101;-80
2022/10/03 07:11:45;;;;;;;1.05;1.00;;;10.40;99.90;;;;;;5042279;28;20029;-80
2022/10/03 07:14:43;;;;;;;2.00;1.45;;;10.50;99.90;;;;;;5042679;28;20052;-80
2022/10/03 07:17:41;;;;;;;2.00;1.73;;;10.50;99.90;;;;;;5039073;28;20025;-80
2022/10/03 07:20:10;;;;;;;3.72;2.25;;;10.60;99.90;;;;;;5042575;28;20505;-80
2022/10/03 07:22:47;;;;;;;2.90;2.63;;;10.60;99.90;;;;;;5046259;28;20079;-80
2022/10/03 07:26:03;;;;;;;5.25;3.30;;;10.70;99.90;;;;;;5046884;28;20532;-80
2022/10/03 07:28:44;;;;;;;3.55;3.05;;;10.90;99.90;;;;;;5039837;28;20075;-80
2022/10/03 07:31:36;;;;;;;6.38;3.58;;;11.00;99.90;;;;;;5038807;28;20030;-79
2022/10/03 07:34:23;;;;;;;3.03;2.72;;;11.20;99.90;;;;;;5038512;28;20047;-80
2022/10/03 07:40:16;;;;;;;3.20;2.90;;;11.40;99.90;;;;;;5041554;28;20047;-80
2022/10/03 07:43:02;;;;;;;3.90;3.35;;;11.50;99.90;;;;;;5040566;28;20435;-79
2022/10/03 07:46:03;;;;;;;3.75;3.22;;;11.50;99.90;;;;;;5046972;28;20518;-79
2022/10/03 07:48:53;;;;;;;4.18;3.78;;;11.60;99.90;;;;;;5041480;28;20071;-80
2022/10/03 07:51:31;;;;;;;4.72;4.10;;;11.50;99.90;;;;;;5019952;28;20085;-81
2022/10/03 07:54:24;;;;;;;6.82;5.13;;;11.50;99.90;;;;;;5019780;28;20049;-80
2022/10/03 07:57:10;;;;;;;6.30;4.90;;;11.50;99.90;;;;;;5017971;28;20487;-79
2022/10/03 07:59:55;;;;;;;5.05;4.60;;;11.60;99.90;;;;;;5039844;28;20025;-79
2022/10/03 08:02:33;;;;;;;5.63;5.07;;;11.60;99.90;;;;;;5058385;28;20034;-79
2022/10/03 08:05:11;;;;;;;9.77;6.80;;;11.50;99.90;;;;;;5058041;28;20048;-78
2022/10/03 08:07:57;;;;;;;9.93;6.20;;;11.40;99.90;;;;;;5058179;28;20037;-78
2022/10/03 08:10:55;;;;;;;9.65;6.70;;;11.40;99.90;;;;;;5058315;28;20029;-78
2022/10/03 08:13:49;;;;;;;11.23;7.55;;;11.40;99.90;;;;;;5044967;28;20029;-78
2022/10/03 08:16:14;;;;;;;9.52;7.15;;;11.30;99.90;;;;;;5058315;28;20089;-78
2022/10/03 08:18:58;;;;;;;10.40;7.10;;;11.30;99.90;;;;;;5057314;28;20020;-78
2022/10/03 08:21:30;;;;;;;10.50;8.20;;;11.20;99.90;;;;;;5057410;28;20021;-78
2022/10/03 08:24:16;;;;;;;9.82;7.95;;;11.20;99.90;;;;;;5042781;28;20418;-78
2022/10/03 08:26:54;;;;;;;11.73;8.77;;;11.20;99.90;;;;;;5037600;28;20159;-78
2022/10/03 08:29:40;;;;;;;10.48;7.90;;;11.20;99.90;;;;;;5039673;28;20029;-78
2022/10/03 08:32:06;;;;;;;8.45;7.65;;;11.20;99.90;;;;;;5038331;28;20029;-78
2022/10/03 08:34:48;;;;;;;15.75;10.15;;;11.30;99.90;;;;;;5040898;23;20050;-76
2022/10/03 08:37:32;;;;;;;;;;;11.30;99.90;;;;;;5018027;28;20018;-76
2022/10/03 08:40:29;;;;;;;14.40;10.68;;;11.20;99.90;;;;;;5016314;28;20280;-77
2022/10/03 08:43:39;;;;;;;14.27;10.45;;;11.20;99.90;;;;;;5033738;28;20032;-76
2022/10/03 08:46:29;;;;;;;14.82;10.60;;;11.30;99.90;;;;;;5019558;28;20046;-77
2022/10/03 08:49:01;;;;;;;11.50;9.68;;;11.40;99.90;;;;;;5014179;28;20033;-77
2022/10/03 08:51:54;;;;;;;13.43;10.07;;;11.60;99.90;;;;;;5014476;28;20474;-78
2022/10/03 08:54:51;;;;;;;16.90;11.57;;;11.80;99.90;;;;;;5014424;28;20048;-79
2022/10/03 08:57:23;;;;;;;15.95;9.93;;;11.90;99.90;;;;;;5016212;28;20056;-78
2022/10/03 09:00:07;;;;;;;20.80;10.93;;;11.90;99.90;;;;;;5017030;28;20030;-77
2022/10/03 09:02:52;;;;;;;16.58;11.60;;;11.90;99.90;;;;;;5015578;28;20062;-77
2022/10/03 09:05:39;;;;;;;14.45;11.45;;;11.90;99.90;;;;;;5016074;28;20091;-79
2022/10/03 09:08:26;;;;;;;17.50;10.82;;;12.10;99.90;;;;;;5016272;28;20053;-78
2022/10/03 09:11:00;;;;;;;13.65;10.30;;;12.20;99.90;;;;;;5015467;28;20030;-77
2022/10/03 09:13:41;;;;;;;13.98;10.40;;;12.20;99.90;;;;;;5017760;28;20091;-79
2022/10/03 09:16:37;;;;;;;16.30;11.43;;;12.20;99.90;;;;;;5015255;28;20490;-78
2022/10/03 09:19:30;;;;;;;13.32;9.60;;;12.00;99.90;;;;;;5013757;28;20367;-79
2022/10/03 09:22:02;;;;;;;10.75;8.88;;;12.10;99.90;;;;;;5014775;28;20022;-79
2022/10/03 09:25:01;;;;;;;14.93;8.83;;;12.10;99.90;;;;;;5013366;28;20113;-77
2022/10/03 09:27:32;;;;;;;13.77;9.80;;;12.20;99.90;;;;;;5017290;28;20264;-78
2022/10/03 09:30:40;;;;;;;12.27;9.80;;;12.70;99.90;;;;;;5014486;28;20026;-77
2022/10/03 09:33:29;;;;;;;10.90;8.57;;;13.10;99.90;;;;;;5014656;28;20053;-78
2022/10/03 09:36:16;;;;;;;8.88;7.85;;;13.40;99.90;;;;;;5013314;28;20513;-79
2022/10/03 09:39:03;;;;;;;10.05;8.02;;;13.50;99.90;;;;;;5014592;28;20037;-77
2022/10/03 09:41:59;;;;;;;9.57;7.85;;;13.60;99.90;;;;;;5016987;28;20022;-80
2022/10/03 09:44:58;;;;;;;8.00;5.55;;;13.80;99.90;;;;;;5013087;28;20493;-78
2022/10/03 09:47:48;;;;;;;7.68;5.80;;;13.80;99.90;;;;;;5013078;28;20053;-79
2022/10/03 09:50:28;;;;;;;7.88;7.07;;;13.80;99.90;;;;;;5014324;28;20014;-79
2022/10/03 09:53:12;;;;;;;11.75;6.15;;;13.80;99.90;;;;;;5018970;28;20006;-81
2022/10/03 09:56:18;;;;;;;11.98;6.80;;;13.70;99.90;;;;;;5021290;28;20040;-78
2022/10/03 09:59:12;;;;;;;9.85;6.68;;;13.70;99.90;;;;;;5011737;28;20037;-78
2022/10/03 10:02:01;;;;;;;12.68;7.18;;;13.50;99.90;;;;;;4999058;28;20034;-77
2022/10/03 10:04:45;;;;;;;12.50;6.63;;;13.20;99.90;;;;;;5006168;28;20080;-78
2022/10/03 10:07:29;;;;;;;10.52;6.00;;;12.90;99.90;;;;;;5015807;28;20018;-77
2022/10/03 10:10:19;;;;;;;9.50;6.13;;;13.00;99.90;;;;;;5015697;28;20543;-78
2022/10/03 10:13:11;;;;;;;8.07;4.75;;;13.10;99.90;;;;;;5015252;28;20030;-77
2022/10/03 10:16:08;;;;;;;7.00;5.47;;;13.20;99.90;;;;;;4999045;28;20076;-77
2022/10/03 10:19:15;;;;;;;7.75;6.15;;;13.40;99.90;;;;;;5019976;28;20094;-77
2022/10/03 10:21:44;;;;;;;8.93;5.60;;;13.90;99.90;;;;;;5007003;28;20034;-80
2022/10/03 10:24:31;;;;;;;6.10;4.22;;;14.50;99.90;;;;;;5015472;28;20034;-80
2022/10/03 10:27:02;;;;;;;5.03;3.78;;;14.80;99.90;;;;;;5017486;28;20053;-75
2022/10/03 10:29:30;;;;;;;10.00;4.63;;;14.90;99.90;;;;;;5014544;28;20033;-78
2022/10/03 10:32:21;;;;;;;7.53;4.25;;;14.90;99.90;;;;;;5014457;28;20129;-77
2022/10/03 10:35:25;;;;;;;10.93;4.65;;;14.60;99.90;;;;;;5014137;28;20033;-78
2022/10/03 10:38:25;;;;;;;8.05;4.10;;;14.10;99.90;;;;;;4998277;28;20038;-77
2022/10/03 10:40:54;;;;;;;10.63;6.13;;;13.70;99.90;;;;;;5013976;28;20029;-77
2022/10/03 10:43:41;;;;;;;7.45;4.63;;;13.30;99.90;;;;;;5013639;28;20030;-77
2022/10/03 10:46:25;;;;;;;5.65;4.43;;;13.30;99.90;;;;;;5014001;28;20080;-78
2022/10/03 10:49:12;;;;;;;8.20;5.63;;;13.50;99.90;;;;;;5013760;28;20029;-77
2022/10/03 10:52:28;;;;;;;14.52;4.93;;;13.70;99.90;;;;;;5013701;28;20037;-78
2022/10/03 10:55:32;;;;;;;9.50;5.03;;;14.10;99.90;;;;;;4995695;28;20062;-79
2022/10/03 10:58:39;;;;;;;8.07;4.60;;;14.20;99.90;;;;;;4952592;29;20122;-77
2022/10/03 11:01:16;;;;;;;4.93;3.50;;;14.60;99.90;;;;;;4994470;28;20483;-78
2022/10/03 11:04:19;;;;;;;5.45;3.42;;;14.90;99.90;;;;;;4993645;28;20026;-76
2022/10/03 11:06:46;;;;;;;7.43;3.20;;;15.30;99.90;;;;;;4993881;28;20054;-78
2022/10/03 11:09:40;;;;;;;3.88;3.00;;;15.30;99.90;;;;;;4994095;28;20074;-76
2022/10/03 11:12:50;;;;;;;5.70;2.97;;;14.80;99.90;;;;;;4995353;28;20579;-76
2022/10/03 11:16:04;;;;;;;3.00;2.70;;;14.60;99.90;;;;;;4979025;28;20058;-76
2022/10/03 11:19:23;;;;;;;6.10;2.53;;;15.10;99.90;;;;;;4991218;28;20039;-77
2022/10/03 11:22:31;;;;;;;6.40;2.65;;;15.40;99.90;;;;;;4973945;28;20117;-78
2022/10/03 11:25:17;;;;;;;6.10;2.88;;;15.70;99.40;;;;;;4975928;28;20046;-77
2022/10/03 11:28:09;;;;;;;6.05;2.72;;;15.80;98.90;;;;;;5006745;28;20034;-76
2022/10/03 11:31:12;;;;;;;5.22;2.40;;;16.00;93.00;;;;;;5014207;28;20034;-78
2022/10/03 11:34:13;;;;;;;5.68;2.13;;;16.20;87.40;;;;;;5016452;28;20125;-76
2022/10/03 11:37:09;;;;;;;4.53;1.95;;;16.30;84.20;;;;;;5015622;28;20364;-76
2022/10/03 11:39:37;;;;;;;9.90;2.70;;;16.20;83.90;;;;;;5020196;28;20014;-78
2022/10/03 11:42:18;;;;;;;3.28;1.90;;;16.10;81.20;;;;;;5034611;28;20064;-80
2022/10/03 11:44:55;;;;;;;5.10;2.22;;;16.10;79.10;;;;;;5035571;28;20041;-79
2022/10/03 11:47:42;;;;;;;6.30;2.50;;;16.00;79.00;;;;;;5034576;28;20010;-77
2022/10/03 11:50:40;;;;;;;5.97;2.38;;;16.00;76.10;;;;;;5013556;28;20097;-77
2022/10/03 11:53:36;;;;;;;6.20;2.58;;;15.90;79.30;;;;;;5012668;28;20030;-78
2022/10/03 11:56:30;;;;;;;7.53;2.95;;;15.70;77.60;;;;;;5012675;28;20022;-81
2022/10/03 11:59:08;;;;;;;7.55;2.50;;;15.60;76.20;;;;;;5014272;28;20483;-79
2022/10/03 12:01:50;;;;;;;10.30;3.17;;;15.50;77.10;;;;;;5013696;28;20033;-78
2022/10/03 12:04:53;;;;;;;8.70;2.95;;;15.70;76.80;;;;;;5012604;28;20064;-79
2022/10/03 12:10:38;;;;;;;5.50;2.75;;;16.10;76.00;;;;;;4997298;28;20041;-79
2022/10/03 12:13:16;;;;;;;2.83;1.83;;;16.30;76.00;;;;;;4997385;28;20026;-78
2022/10/03 12:16:04;;;;;;;3.78;2.05;;;16.70;77.00;;;;;;4997390;28;20030;-79
2022/10/03 12:18:41;;;;;;;4.43;2.60;;;17.20;76.50;;;;;;5006981;28;20041;-79
2022/10/03 12:21:32;;;;;;;7.97;2.15;;;17.80;74.80;;;;;;5024863;28;20022;-78
2022/10/03 12:24:17;;;;;;;7.22;2.40;;;17.80;69.20;;;;;;5016198;28;20026;-79
2022/10/03 12:27:07;;;;;;;5.97;2.80;;;17.90;68.10;;;;;;5014349;28;20045;-79
2022/10/03 12:29:37;;;;;;;5.35;2.10;;;18.00;68.60;;;;;;5013938;28;20072;-80
2022/10/03 12:32:20;;;;;;;5.95;2.53;;;17.90;69.20;;;;;;5018787;28;20029;-78
2022/10/03 12:34:49;;;;;;;;;;;17.70;68.50;;;;;;5015757;28;20060;-78
2022/10/03 12:37:21;;;;;;;5.70;2.97;;;17.30;70.10;;;;;;5015542;28;19952;-79
2022/10/03 12:40:32;;;;;;;5.47;2.40;;;17.10;70.20;;;;;;5015756;28;20026;-79
2022/10/03 12:43:28;;;;;;;8.00;3.15;;;16.70;73.30;;;;;;5013365;28;20041;-78
2022/10/03 12:46:00;;;;;;;6.57;2.80;;;16.20;75.20;;;;;;5013864;28;20036;-80
2022/10/03 12:49:10;;;;;;;8.07;2.47;;;15.90;76.80;;;;;;5015683;28;20113;-77
2022/10/03 12:51:59;;;;;;;4.18;2.42;;;15.60;77.30;;;;;;4972962;28;20088;-77
2022/10/03 12:54:27;;;;;;;9.18;3.05;;;15.40;79.10;;;;;;5016187;28;20026;-77
2022/10/03 12:57:12;;;;;;;6.20;3.13;;;;;;;;;;5014633;28;20022;-79
2022/10/03 12:59:44;;;;;;;7.22;2.92;;;14.90;79.80;;;;;;5015972;28;20036;-78
2022/10/03 13:02:44;;;;;;;4.88;2.22;;;14.80;79.60;;;;;;5015414;28;20026;-77
2022/10/03 13:05:27;;;;;;;7.07;2.33;;;14.70;80.20;;;;;;5015597;28;20030;-77
2022/10/03 13:08:30;;;;;;;6.20;2.50;;;14.80;81.00;;;;;;5015227;28;20097;-77
2022/10/03 13:11:13;;;;;;;4.85;2.28;;;14.70;80.40;;;;;;4957283;28;20049;-77
2022/10/03 13:13:53;;;;;;;;;;;14.70;80.50;;;;;;4974107;28;20403;-76
2022/10/03 13:16:43;;;;;;;2.97;1.73;;;14.70;76.00;;;;;;4988726;28;19906;-78
2022/10/03 13:19:17;;;;;;;4.25;1.65;;;15.10;77.30;;;;;;4995435;28;20026;-78
2022/10/03 13:22:20;;;;;;;5.40;2.60;;;15.70;77.00;;;;;;5009571;28;20106;-79
2022/10/03 13:25:22;;;;;;;4.32;2.63;;;16.30;72.70;;;;;;5015638;28;20037;-79
2022/10/03 13:27:59;;;;;;;3.78;1.77;;;16.60;72.30;;;;;;5014711;28;20026;-79
2022/10/03 13:30:31;;;;;;;5.70;2.00;;;16.60;71.50;;;;;;5013340;28;20026;-79
2022/10/03 13:33:00;;;;;;;6.60;1.90;;;16.50;71.90;;;;;;4997575;28;20518;-79
2022/10/03 13:38:36;;;;;;;7.40;2.63;;;16.20;73.90;;;;;;4994981;28;20062;-79
2022/10/03 13:41:14;;;;;;;6.30;3.10;;;15.90;77.10;;;;;;4995755;28;20538;-77
2022/10/03 13:43:49;;;;;;;8.80;3.70;;;15.70;78.50;;;;;;4994772;28;20022;-79
2022/10/03 13:46:28;;;;;;;6.75;2.92;;;15.40;79.80;;;;;;4994413;28;20022;-78
2022/10/03 13:48:59;;;;;;;5.15;2.65;;;15.30;81.10;;;;;;4994938;28;20026;-78
2022/10/03 13:51:30;;;;;;;11.67;3.47;;;15.10;81.50;;;;;;4998163;28;20367;-78
2022/10/03 13:54:07;;;;;;;5.72;2.80;;;15.00;82.20;;;;;;5013042;28;20033;-76
2022/10/03 13:56:42;;;;;;;8.48;3.20;;;14.90;82.30;;;;;;5014005;28;20076;-78
2022/10/03 13:59:24;;;;;;;5.18;2.40;;;15.20;82.50;;;;;;5012508;28;20045;-79
2022/10/03 14:01:55;;;;;;;;;;;15.50;81.70;;;;;;5014864;28;20030;-79
2022/10/03 14:04:37;;;;;;;6.32;2.20;;;15.90;79.90;;;;;;5016072;28;19936;-78
2022/10/03 14:07:30;;;;;;;8.17;3.07;;;16.10;77.30;;;;;;5012675;28;20399;-80
2022/10/03 14:10:34;;;;;;;6.47;2.20;;;16.20;74.80;;;;;;5014348;28;20433;-78
2022/10/03 14:13:19;;;;;;;6.65;2.38;;;15.90;76.20;;;;;;5005300;28;20022;-77
2022/10/03 14:16:09;;;;;;;5.75;2.55;;;15.90;78.20;;;;;;5009921;28;20041;-76
2022/10/03 14:18:50;;;;;;;5.97;2.35;;;16.00;77.90;;;;;;5023302;28;20105;-78
2022/10/03 14:21:28;;;;;;;7.25;2.78;;;15.90;76.90;;;;;;5018889;28;20030;-78
2022/10/03 14:24:30;;;;;;;4.85;2.83;;;15.70;76.70;;;;;;5012251;28;20030;-78
2022/10/03 14:27:14;;;;;;;8.27;2.53;;;15.40;77.90;;;;;;5014224;28;20061;-78
2022/10/03 14:29:58;;;;;;;7.78;2.88;;;15.20;79.20;;;;;;5014355;28;20022;-77
2022/10/03 14:32:37;;;;;;;5.60;2.17;;;15.50;78.00;;;;;;5013224;28;20049;-78
2022/10/03 14:35:18;;;;;;;11.48;3.58;;;15.90;77.30;;;;;;5042654;22;20049;-81
2022/10/03 14:37:52;;;;;;;6.60;2.00;;;16.30;75.10;;;;;;5047905;28;20059;-82
2022/10/03 14:40:22;;;;;;;5.63;2.20;;;16.50;75.40;;;;;;5042723;28;20025;-81
2022/10/03 14:43:00;;;;;;;7.25;2.53;;;16.50;74.80;;;;;;5043391;28;20022;-81
2022/10/03 14:45:35;;;;;;;5.75;1.80;;;16.50;74.60;;;;;;5051718;28;20226;-82